Atascadero, California
Current Conditions -  °F | °C
As of 8:53 PM on Sunday 19 Oct 2014 (Local Time) from KPRB Reporting Station
Clear Clear  
Wind Chill: 62°   Ceiling: Unl
Heat Index: 62°   Visibility: 10mi
Dew Point: 53°   Wind: 5mph
Humidity: 72%   Direction: 200°SSW
Pressure: 29.89"   Gusts: NA
Location:  35.49°N, 120.66°W
Report Text: KPRB 200353Z AUTO 20004KT 10SM CLR 17/12 A2989 RMK AO2 SLP120 T01670117 TSNO
Loading
Personal Weather Stations






























Interactive Weather Map
Tropical Storm Tracking
New forecast layout! Learn more

10-Day Weather Forecast

Advertisements
Track Severe Weather on mobile